Time;durP1;ratioP1;P1;durP2;ratioP2;P2;SDS_P1;SDS_P2;PMS_P1;PMS_P2;Temp;Humidity;BMP_temperature;BMP_pressure;BME280_temperature;BME280_humidity;BME280_pressure;Samples;Min_cycle;Max_cycle;Signal;HPM_P1;HPM_P2
2022/12/11 00:00:00;;;;;;;49.65;16.20;;;-1.00;99.90;;;;;;5105601;28;20032;-65
2022/12/11 00:02:27;;;;;;;53.38;15.65;;;-0.90;99.90;;;;;;5097422;28;20101;-65
2022/12/11 00:04:53;;;;;;;50.80;16.42;;;-0.90;99.90;;;;;;5083419;28;21725;-63
2022/12/11 00:07:18;;;;;;;46.90;16.27;;;-0.90;99.90;;;;;;5084428;28;20085;-64
2022/12/11 00:09:44;;;;;;;56.53;16.42;;;-0.90;99.90;;;;;;5076026;28;20039;-66
2022/12/11 00:12:09;;;;;;;48.67;15.55;;;-0.90;99.90;;;;;;5082900;28;20593;-63
2022/12/11 00:14:35;;;;;;;48.78;15.50;;;-0.90;99.90;;;;;;5105409;28;20138;-64
2022/12/11 00:17:01;;;;;;;43.97;15.50;;;-0.80;99.90;;;;;;5109234;28;20043;-63
2022/12/11 00:19:26;;;;;;;55.28;16.27;;;-0.80;99.90;;;;;;5084526;28;20047;-62
2022/12/11 00:21:52;;;;;;;57.08;17.08;;;-0.80;99.90;;;;;;5085962;28;20501;-64
2022/12/11 00:24:17;;;;;;;52.00;15.27;;;-0.80;99.90;;;;;;5098448;28;20036;-64
2022/12/11 00:26:44;;;;;;;52.00;15.95;;;-0.80;99.90;;;;;;5104703;28;20038;-65
2022/12/11 00:29:13;;;;;;;62.40;16.90;;;-0.80;99.90;;;;;;5080113;28;20039;-65
2022/12/11 00:31:40;;;;;;;46.20;16.80;;;-0.80;99.90;;;;;;5081574;28;20039;-65
2022/12/11 00:34:06;;;;;;;58.20;17.08;;;-0.80;99.90;;;;;;5096518;28;20044;-63
2022/12/11 00:36:32;;;;;;;67.60;17.80;;;-0.70;99.90;;;;;;5079418;28;20031;-65
2022/12/11 00:38:57;;;;;;;56.17;17.83;;;-0.70;99.90;;;;;;5082280;28;20039;-64
2022/12/11 00:41:23;;;;;;;56.33;17.85;;;-0.70;99.90;;;;;;5104886;28;20035;-65
2022/12/11 00:43:49;;;;;;;55.03;17.10;;;-0.70;99.90;;;;;;5099836;28;20039;-63
2022/12/11 00:46:15;;;;;;;54.72;16.33;;;-0.70;99.90;;;;;;5085734;28;20543;-63
2022/12/11 00:48:41;;;;;;;52.30;16.27;;;-0.70;99.90;;;;;;5100293;28;20060;-65
2022/12/11 00:51:06;;;;;;;50.60;16.30;;;-0.80;99.90;;;;;;5105387;28;20116;-63
2022/12/11 00:53:32;;;;;;;67.82;18.73;;;-0.70;99.90;;;;;;5080897;28;20079;-65
2022/12/11 00:55:58;;;;;;;55.50;16.90;;;-0.70;99.90;;;;;;5100469;28;20039;-66
2022/12/11 00:58:23;;;;;;;56.67;17.45;;;-0.70;99.90;;;;;;5076150;28;20071;-64
2022/12/11 01:00:49;;;;;;;63.65;17.65;;;-0.70;99.90;;;;;;5079971;28;20398;-65
2022/12/11 01:03:15;;;;;;;62.25;17.88;;;-0.70;99.90;;;;;;5082296;28;20398;-65
2022/12/11 01:05:49;;;;;;;49.88;15.90;;;-0.70;99.90;;;;;;5083428;28;20402;-63
2022/12/11 01:08:14;;;;;;;58.33;15.77;;;-0.70;99.90;;;;;;5101678;28;20036;-66
2022/12/11 01:10:40;;;;;;;52.58;15.98;;;-0.70;99.90;;;;;;5105784;28;20040;-63
2022/12/11 01:13:06;;;;;;;51.15;15.85;;;-0.60;99.90;;;;;;5085675;28;20060;-64
2022/12/11 01:15:41;;;;;;;49.00;14.40;;;-0.60;99.90;;;;;;5086178;28;20052;-66
2022/12/11 01:18:06;;;;;;;58.50;17.23;;;-0.60;99.90;;;;;;5085457;28;20039;-63
2022/12/11 01:20:32;;;;;;;54.80;15.88;;;-0.60;99.90;;;;;;5089522;28;20035;-65
2022/12/11 01:22:59;;;;;;;51.35;15.80;;;-0.60;99.90;;;;;;5082186;28;20110;-65
2022/12/11 01:25:26;;;;;;;50.08;16.00;;;-0.60;99.90;;;;;;5101807;28;20495;-63
2022/12/11 01:27:53;;;;;;;59.95;17.25;;;-0.60;99.90;;;;;;5089576;28;20038;-63
2022/12/11 01:30:20;;;;;;;63.35;17.30;;;-0.60;99.90;;;;;;5088893;28;20058;-63
2022/12/11 01:32:45;;;;;;;54.35;15.95;;;-0.50;99.90;;;;;;5108467;28;20418;-65
2022/12/11 01:35:11;;;;;;;54.28;16.13;;;-0.50;99.90;;;;;;5087417;28;20047;-64
2022/12/11 01:37:37;;;;;;;58.55;16.73;;;-0.50;99.90;;;;;;5089277;28;20054;-63
2022/12/11 01:40:05;;;;;;;54.90;16.10;;;-0.50;99.90;;;;;;5065519;28;20036;-63
2022/12/11 01:42:30;;;;;;;57.05;17.40;;;-0.50;99.90;;;;;;5103189;28;20194;-64
2022/12/11 01:45:14;;;;;;;51.67;16.00;;;-0.50;99.90;;;;;;5111899;28;20470;-63
2022/12/11 01:47:40;;;;;;;60.85;15.32;;;-0.50;99.90;;;;;;5101005;28;20528;-63
2022/12/11 01:50:05;;;;;;;57.42;15.25;;;-0.50;99.90;;;;;;5087055;28;20039;-64
2022/12/11 01:52:31;;;;;;;53.83;15.82;;;-0.50;99.90;;;;;;5090455;28;20479;-64
2022/12/11 01:54:57;;;;;;;51.47;15.40;;;-0.50;99.90;;;;;;5084816;28;20118;-63
2022/12/11 01:57:23;;;;;;;59.78;15.18;;;-0.40;99.90;;;;;;5087743;28;20671;-64
2022/12/11 01:59:48;;;;;;;44.67;15.00;;;-0.40;99.90;;;;;;5106020;28;20031;-65
2022/12/11 02:02:18;;;;;;;51.38;16.20;;;-0.40;99.90;;;;;;5102150;28;20038;-65
2022/12/11 02:04:45;;;;;;;53.67;14.82;;;-0.40;99.90;;;;;;5086168;28;20078;-63
2022/12/11 02:07:11;;;;;;;62.88;17.67;;;-0.40;99.90;;;;;;5070765;28;20036;-65
2022/12/11 02:09:38;;;;;;;62.25;16.63;;;-0.40;99.90;;;;;;5077603;28;20077;-64
2022/12/11 02:12:22;;;;;;;57.90;15.05;;;-0.40;99.90;;;;;;5107853;28;20409;-64
2022/12/11 02:15:23;;;;;;;59.17;16.20;;;-0.30;99.90;;;;;;5104763;28;20059;-63
2022/12/11 02:17:51;;;;;;;52.33;15.45;;;-0.40;99.90;;;;;;5110531;28;20075;-66
2022/12/11 02:20:25;;;;;;;56.55;15.43;;;-0.30;99.90;;;;;;5107881;28;20031;-63
2022/12/11 02:23:11;;;;;;;50.50;14.27;;;-0.30;99.90;;;;;;5085720;28;20040;-65
2022/12/11 02:25:55;;;;;;;60.13;17.80;;;-0.30;99.90;;;;;;5106988;28;20031;-63
2022/12/11 02:29:08;;;;;;;59.53;17.05;;;-0.30;99.90;;;;;;5104277;28;20080;-64
2022/12/11 02:31:49;;;;;;;51.03;15.93;;;-0.30;99.90;;;;;;5040605;28;20483;-63
2022/12/11 02:34:22;;;;;;;56.38;16.30;;;-0.30;99.90;;;;;;5022746;28;20048;-66
2022/12/11 02:36:54;;;;;;;56.67;16.27;;;-0.30;99.90;;;;;;5061130;28;20104;-66
2022/12/11 02:39:22;;;;;;;53.60;14.63;;;-0.30;99.90;;;;;;5086719;28;20421;-64
2022/12/11 02:41:50;;;;;;;53.40;14.40;;;-0.30;99.90;;;;;;5082773;28;20453;-66
2022/12/11 02:44:20;;;;;;;51.90;15.75;;;-0.30;99.90;;;;;;5101539;28;20110;-64
2022/12/11 02:46:46;;;;;;;;;;;-0.30;99.90;;;;;;5108781;28;20399;-63
2022/12/11 02:49:12;;;;;;;54.63;16.70;;;-0.30;99.90;;;;;;5085243;28;19946;-64
2022/12/11 02:51:43;;;;;;;66.68;15.85;;;-0.20;99.90;;;;;;5096347;28;20035;-63
2022/12/11 02:54:26;;;;;;;56.65;18.13;;;-0.20;99.90;;;;;;5063865;28;20493;-63
2022/12/11 02:57:00;;;;;;;60.00;15.60;;;-0.30;99.90;;;;;;5099658;28;20039;-66
2022/12/11 02:59:34;;;;;;;54.15;14.95;;;-0.20;99.90;;;;;;5082448;28;20169;-63
2022/12/11 03:02:01;;;;;;;61.00;17.00;;;-0.20;99.90;;;;;;5105178;28;20078;-63
2022/12/11 03:04:28;;;;;;;51.05;16.33;;;-0.20;99.90;;;;;;5106285;28;20570;-64
2022/12/11 03:06:58;;;;;;;62.92;17.58;;;-0.20;99.90;;;;;;5103390;28;20463;-65
2022/12/11 03:09:25;;;;;;;56.92;16.17;;;-0.20;99.90;;;;;;5100004;28;20043;-64
2022/12/11 03:11:51;;;;;;;57.22;16.95;;;-0.20;99.90;;;;;;5088873;28;20042;-63
2022/12/11 03:14:17;;;;;;;50.97;15.25;;;-0.10;99.90;;;;;;5104501;28;20503;-64
2022/12/11 03:17:06;;;;;;;54.45;16.80;;;-0.20;99.90;;;;;;5084523;28;20127;-65
2022/12/11 03:19:46;;;;;;;65.88;17.23;;;-0.20;99.90;;;;;;5074631;28;20052;-64
2022/12/11 03:22:19;;;;;;;52.22;14.93;;;-0.10;99.90;;;;;;5098463;28;20039;-63
2022/12/11 03:24:50;;;;;;;55.42;15.57;;;-0.10;99.90;;;;;;5082039;28;20154;-64
2022/12/11 03:27:24;;;;;;;55.10;16.02;;;-0.10;99.90;;;;;;5090653;28;20047;-63
2022/12/11 03:30:00;;;;;;;47.58;14.38;;;-0.10;99.90;;;;;;5089517;28;20031;-63
2022/12/11 03:32:42;;;;;;;48.50;15.23;;;-0.10;99.90;;;;;;5099331;28;20044;-64
2022/12/11 03:35:13;;;;;;;56.10;15.65;;;-0.10;99.90;;;;;;5089676;28;20054;-63
2022/12/11 03:37:41;;;;;;;56.22;15.40;;;-0.10;99.90;;;;;;5090761;28;20089;-63
2022/12/11 03:40:12;;;;;;;62.92;16.08;;;-0.10;99.90;;;;;;5098490;28;20084;-65
2022/12/11 03:42:39;;;;;;;55.33;15.40;;;-0.10;99.90;;;;;;5107129;28;20055;-63
2022/12/11 03:45:07;;;;;;;47.85;14.77;;;-0.10;99.90;;;;;;5109779;28;20055;-63
2022/12/11 03:47:33;;;;;;;51.97;16.13;;;0.00;99.90;;;;;;5088053;28;20065;-65
2022/12/11 03:50:00;;;;;;;47.42;15.45;;;0.00;99.90;;;;;;5100416;28;20027;-63
2022/12/11 03:52:28;;;;;;;50.85;14.93;;;0.00;99.90;;;;;;5090148;28;20086;-65
2022/12/11 03:54:58;;;;;;;56.00;14.57;;;0.00;99.90;;;;;;5088567;28;20075;-63
2022/12/11 03:57:26;;;;;;;;;;;0.00;99.90;;;;;;5088970;28;20043;-63
2022/12/11 03:59:51;;;;;;;57.20;15.10;;;0.00;99.90;;;;;;5089724;28;20377;-63
2022/12/11 04:02:17;;;;;;;54.47;15.40;;;0.00;99.90;;;;;;5087414;28;20139;-63
2022/12/11 04:04:43;;;;;;;64.40;15.07;;;0.00;99.90;;;;;;5088139;28;20402;-66
2022/12/11 04:07:08;;;;;;;51.17;15.23;;;0.00;99.90;;;;;;5098382;28;20390;-63
2022/12/11 04:09:34;;;;;;;58.35;16.20;;;0.00;99.90;;;;;;5087728;28;20039;-64
2022/12/11 04:12:00;;;;;;;60.08;16.55;;;0.00;99.90;;;;;;5107968;28;20050;-63
2022/12/11 04:17:11;;;;;;;61.15;16.33;;;0.00;99.90;;;;;;5085192;28;20048;-63
2022/12/11 04:25:07;;;;;;;54.53;14.82;;;0.00;99.90;;;;;;5084521;28;20044;-64
2022/12/11 04:27:48;;;;;;;60.53;16.60;;;0.00;99.90;;;;;;5087616;28;20470;-63
2022/12/11 04:30:18;;;;;;;53.25;15.02;;;0.00;99.90;;;;;;5074789;28;20096;-63
2022/12/11 04:32:44;;;;;;;55.28;14.90;;;0.00;99.90;;;;;;5086689;28;20405;-64
2022/12/11 04:35:10;;;;;;;59.53;14.90;;;0.00;99.90;;;;;;5104003;28;20122;-64
2022/12/11 04:37:36;;;;;;;54.38;16.35;;;0.00;99.90;;;;;;5087141;28;20467;-64
2022/12/11 04:40:05;;;;;;;58.03;14.68;;;0.00;99.90;;;;;;5088314;28;20039;-63
2022/12/11 04:42:30;;;;;;;58.72;15.60;;;0.00;99.90;;;;;;5082046;28;20125;-63
2022/12/11 04:44:56;;;;;;;58.78;15.45;;;0.00;99.90;;;;;;5108306;28;20066;-63
2022/12/11 04:47:21;;;;;;;60.40;16.77;;;0.00;99.90;;;;;;5110347;28;20105;-65
2022/12/11 04:49:47;;;;;;;54.97;15.52;;;0.00;99.90;;;;;;5105787;28;20040;-63
2022/12/11 04:52:12;;;;;;;52.67;15.82;;;0.00;99.90;;;;;;5102573;28;20035;-64
2022/12/11 04:54:38;;;;;;;54.47;15.88;;;0.00;99.90;;;;;;5094415;28;20075;-65
2022/12/11 04:57:04;;;;;;;71.05;16.00;;;0.00;99.90;;;;;;5091918;28;20502;-64
2022/12/11 04:59:31;;;;;;;58.63;15.88;;;0.00;99.90;;;;;;5088510;28;20044;-66
2022/12/11 05:01:57;;;;;;;50.63;15.93;;;0.00;99.90;;;;;;5111492;28;20036;-64
2022/12/11 05:04:22;;;;;;;52.63;16.13;;;0.00;99.90;;;;;;5107899;28;20047;-64
2022/12/11 05:06:49;;;;;;;60.40;15.70;;;0.00;99.90;;;;;;5107722;28;20040;-63
2022/12/11 05:09:15;;;;;;;58.63;16.70;;;0.00;99.90;;;;;;5112610;28;20033;-63
2022/12/11 05:11:40;;;;;;;59.17;16.02;;;0.00;99.90;;;;;;5092927;28;20363;-64
2022/12/11 05:14:07;;;;;;;65.72;16.92;;;0.00;99.90;;;;;;5089886;28;20140;-63
2022/12/11 05:16:32;;;;;;;57.60;17.67;;;0.00;99.90;;;;;;5094915;28;20123;-63
2022/12/11 05:18:58;;;;;;;52.97;15.05;;;0.00;99.90;;;;;;5110424;28;20106;-63
2022/12/11 05:21:23;;;;;;;55.08;15.57;;;0.00;99.90;;;;;;5105613;28;20362;-63
2022/12/11 05:23:49;;;;;;;55.47;15.60;;;0.00;99.90;;;;;;5088136;28;20589;-63
2022/12/11 05:26:18;;;;;;;63.22;17.95;;;0.00;99.90;;;;;;5108584;28;20569;-63
2022/12/11 05:28:45;;;;;;;52.55;16.45;;;0.00;99.90;;;;;;5111124;28;20043;-63
2022/12/11 05:31:19;;;;;;;51.95;16.88;;;0.00;99.90;;;;;;5093092;28;20035;-63
2022/12/11 05:33:45;;;;;;;50.58;16.13;;;0.00;99.90;;;;;;5100138;28;20027;-63
2022/12/11 05:36:20;;;;;;;55.50;15.68;;;0.00;99.90;;;;;;5104916;28;20690;-63
2022/12/11 05:38:46;;;;;;;52.05;14.55;;;0.00;99.90;;;;;;5096138;28;20089;-64
2022/12/11 05:41:14;;;;;;;57.25;16.45;;;0.00;99.90;;;;;;5084370;28;20070;-65
2022/12/11 05:43:41;;;;;;;55.22;16.17;;;0.00;99.90;;;;;;5102777;28;20044;-65
2022/12/11 05:46:14;;;;;;;56.55;16.23;;;0.00;99.90;;;;;;5104276;28;20379;-65
2022/12/11 05:48:40;;;;;;;58.67;17.58;;;0.00;99.90;;;;;;5100897;28;20084;-64
2022/12/11 05:51:07;;;;;;;59.92;16.73;;;0.00;99.90;;;;;;5101400;28;20039;-65
2022/12/11 05:53:35;;;;;;;53.25;16.08;;;0.00;99.90;;;;;;5101725;28;20035;-64
2022/12/11 05:56:21;;;;;;;56.13;16.48;;;0.00;99.90;;;;;;5107316;28;20126;-64
2022/12/11 05:58:48;;;;;;;61.10;17.75;;;0.10;99.90;;;;;;5101604;28;20043;-63
2022/12/11 06:01:20;;;;;;;50.15;15.98;;;0.00;99.90;;;;;;5102281;28;22710;-63
2022/12/11 06:03:46;;;;;;;50.92;15.60;;;0.00;99.90;;;;;;5106677;28;20090;-63
2022/12/11 06:06:11;;;;;;;57.92;15.38;;;0.00;99.90;;;;;;5083499;28;20071;-65
2022/12/11 06:08:37;;;;;;;49.20;15.05;;;0.00;99.90;;;;;;5100988;28;20439;-65
2022/12/11 06:11:03;;;;;;;49.75;15.73;;;0.10;99.90;;;;;;5099778;28;20035;-64
2022/12/11 06:13:29;;;;;;;53.00;14.68;;;0.10;99.90;;;;;;5102975;28;20146;-65
2022/12/11 06:15:58;;;;;;;51.75;15.88;;;0.10;99.90;;;;;;5085614;28;20142;-64
2022/12/11 06:18:23;;;;;;;54.50;14.32;;;0.10;99.90;;;;;;5068060;28;20057;-65
2022/12/11 06:20:49;;;;;;;49.80;15.18;;;0.10;99.90;;;;;;5102732;28;20027;-64
2022/12/11 06:23:14;;;;;;;44.45;14.45;;;0.10;99.90;;;;;;5084829;28;20092;-64
2022/12/11 06:25:40;;;;;;;45.78;13.45;;;0.10;99.90;;;;;;5093399;28;20039;-63
2022/12/11 06:28:06;;;;;;;57.10;15.88;;;0.10;99.90;;;;;;5086238;28;20040;-63
2022/12/11 06:30:31;;;;;;;46.35;14.93;;;0.00;99.90;;;;;;5078396;28;21976;-64
2022/12/11 06:32:57;;;;;;;55.78;14.60;;;0.10;99.90;;;;;;5089506;28;20174;-64
2022/12/11 06:35:23;;;;;;;52.90;13.88;;;0.00;99.90;;;;;;5096576;28;20043;-65
2022/12/11 06:37:48;;;;;;;44.67;14.50;;;0.10;99.90;;;;;;5088158;28;20042;-64
2022/12/11 06:40:14;;;;;;;45.97;12.43;;;0.10;99.90;;;;;;5073223;28;20106;-63
2022/12/11 06:42:40;;;;;;;40.30;12.70;;;0.00;99.90;;;;;;5089366;28;20093;-65
2022/12/11 06:45:06;;;;;;;49.20;13.00;;;0.00;99.90;;;;;;5110596;28;20457;-63
2022/12/11 06:47:32;;;;;;;47.92;14.15;;;0.10;99.90;;;;;;5092029;28;20040;-64
2022/12/11 06:49:58;;;;;;;45.13;13.82;;;0.10;99.90;;;;;;5088977;28;20383;-65
2022/12/11 06:52:26;;;;;;;46.17;14.18;;;0.10;99.90;;;;;;5111418;28;20089;-66
2022/12/11 06:54:51;;;;;;;54.67;14.02;;;0.10;99.90;;;;;;5106553;28;20058;-66
2022/12/11 06:57:18;;;;;;;47.95;15.02;;;0.10;99.90;;;;;;5090105;28;20039;-65
2022/12/11 06:59:44;;;;;;;48.45;12.93;;;0.10;99.90;;;;;;5088808;28;20433;-65
2022/12/11 07:02:15;;;;;;;44.15;13.18;;;0.00;99.90;;;;;;5093112;28;20527;-65
2022/12/11 07:04:41;;;;;;;45.10;14.32;;;0.10;99.90;;;;;;5092884;28;20044;-64
2022/12/11 07:07:07;;;;;;;44.30;13.82;;;0.10;99.90;;;;;;5094991;28;20042;-65
2022/12/11 07:09:33;;;;;;;44.38;12.90;;;0.10;99.90;;;;;;5075554;28;20421;-64
2022/12/11 07:11:59;;;;;;;47.58;13.93;;;0.10;99.90;;;;;;5111202;28;20078;-64
2022/12/11 07:14:24;;;;;;;41.80;12.13;;;0.10;99.90;;;;;;5091425;28;20079;-64
2022/12/11 07:16:50;;;;;;;47.72;13.05;;;0.10;99.90;;;;;;5089920;28;20040;-64
2022/12/11 07:19:16;;;;;;;50.30;13.93;;;0.10;99.90;;;;;;5081614;28;20038;-64
2022/12/11 07:21:41;;;;;;;48.03;14.55;;;0.10;99.90;;;;;;5089674;28;20032;-65
2022/12/11 07:24:07;;;;;;;49.45;14.30;;;0.10;99.90;;;;;;5087441;28;20093;-65
2022/12/11 07:26:33;;;;;;;53.97;15.20;;;0.10;99.90;;;;;;5070790;28;20475;-66
2022/12/11 07:28:59;;;;;;;46.90;14.77;;;0.10;99.90;;;;;;5086072;28;20115;-64
2022/12/11 07:31:27;;;;;;;44.58;13.80;;;0.10;99.90;;;;;;5089237;28;20040;-64
2022/12/11 07:33:54;;;;;;;43.28;12.05;;;0.10;99.90;;;;;;5086374;28;20215;-65
2022/12/11 07:36:20;;;;;;;46.22;13.15;;;0.10;99.90;;;;;;5077607;28;20123;-64
2022/12/11 07:38:46;;;;;;;47.25;13.57;;;0.10;99.90;;;;;;5081389;28;20142;-65
2022/12/11 07:41:13;;;;;;;49.00;12.95;;;0.10;99.90;;;;;;5083487;28;20139;-65
2022/12/11 07:43:39;;;;;;;49.75;13.05;;;0.10;99.90;;;;;;5083484;28;20036;-67
2022/12/11 07:46:07;;;;;;;42.83;13.10;;;0.10;99.90;;;;;;5073882;28;20504;-65
2022/12/11 07:48:37;;;;;;;42.25;13.38;;;0.10;99.90;;;;;;5073670;28;20046;-65
2022/12/11 07:51:29;;;;;;;46.30;15.00;;;0.10;99.90;;;;;;5076713;28;20032;-65
2022/12/11 07:53:57;;;;;;;53.45;14.18;;;0.10;99.90;;;;;;5084748;28;20040;-65
2022/12/11 07:56:23;;;;;;;55.33;14.45;;;0.10;99.90;;;;;;5079168;28;20047;-66
2022/12/11 07:58:49;;;;;;;53.08;14.70;;;0.10;99.90;;;;;;5091646;28;20036;-66
2022/12/11 08:01:26;;;;;;;52.95;13.88;;;0.10;99.90;;;;;;5089005;28;20043;-65
2022/12/11 08:03:53;;;;;;;57.55;14.80;;;0.10;99.90;;;;;;5087953;28;20028;-65
2022/12/11 08:06:23;;;;;;;46.00;14.35;;;0.10;99.90;;;;;;5085815;28;20854;-65
2022/12/11 08:08:48;;;;;;;;;;;0.10;99.90;;;;;;5082712;28;20517;-64
2022/12/11 08:11:14;;;;;;;51.75;13.75;;;0.10;99.90;;;;;;5087122;28;19920;-65
2022/12/11 08:13:41;;;;;;;49.88;12.80;;;0.10;99.90;;;;;;5082483;28;20048;-65
2022/12/11 08:16:10;;;;;;;59.80;14.88;;;0.20;99.90;;;;;;5087508;28;20123;-65
2022/12/11 08:18:36;;;;;;;56.28;16.48;;;0.20;99.90;;;;;;5084020;28;20036;-64
2022/12/11 08:21:13;;;;;;;46.50;15.15;;;0.10;99.90;;;;;;5087958;28;20044;-65
2022/12/11 08:23:39;;;;;;;63.15;14.70;;;0.10;99.90;;;;;;5087193;28;20040;-64
2022/12/11 08:26:07;;;;;;;54.75;15.32;;;0.10;99.90;;;;;;5087466;28;20058;-64
2022/12/11 08:28:32;;;;;;;50.30;15.57;;;0.10;99.90;;;;;;5085307;28;20077;-65
2022/12/11 08:30:59;;;;;;;55.17;14.52;;;0.10;99.90;;;;;;5090729;28;20449;-65
2022/12/11 08:33:24;;;;;;;55.72;15.30;;;0.10;99.90;;;;;;5082146;28;20041;-65
2022/12/11 08:35:50;;;;;;;55.30;16.42;;;0.10;99.90;;;;;;5082532;28;20403;-65
2022/12/11 08:38:16;;;;;;;57.80;15.48;;;0.10;99.90;;;;;;5069278;28;20040;-65
2022/12/11 08:40:41;;;;;;;56.85;15.30;;;0.20;99.90;;;;;;5085888;28;20051;-65
2022/12/11 08:43:07;;;;;;;54.22;15.70;;;0.20;99.90;;;;;;5083795;28;20040;-65
2022/12/11 08:45:32;;;;;;;50.78;14.15;;;0.20;99.90;;;;;;5086085;28;20053;-64
2022/12/11 08:47:58;;;;;;;55.80;15.02;;;0.20;99.90;;;;;;5084208;28;20403;-65
2022/12/11 08:50:24;;;;;;;58.53;15.82;;;0.20;99.90;;;;;;5083895;28;20036;-64
2022/12/11 08:52:50;;;;;;;50.90;14.02;;;0.20;99.90;;;;;;5075745;28;20032;-66
2022/12/11 08:55:15;;;;;;;60.97;16.60;;;0.20;99.90;;;;;;5075380;28;20077;-65
2022/12/11 08:57:41;;;;;;;58.35;17.15;;;0.20;99.90;;;;;;5075819;28;20040;-65
2022/12/11 09:00:08;;;;;;;52.00;14.98;;;0.20;99.90;;;;;;5084795;28;20131;-65
2022/12/11 09:02:34;;;;;;;58.45;16.20;;;0.30;99.90;;;;;;5085405;28;20387;-64
2022/12/11 09:05:00;;;;;;;59.58;16.33;;;0.20;99.90;;;;;;5084369;28;20032;-64
2022/12/11 09:07:26;;;;;;;52.13;15.10;;;0.20;99.90;;;;;;5088120;28;20855;-64
2022/12/11 09:09:54;;;;;;;59.13;16.40;;;0.20;99.90;;;;;;5082418;28;20040;-64
2022/12/11 09:12:19;;;;;;;64.28;16.52;;;0.20;99.90;;;;;;5090198;28;20050;-64
2022/12/11 09:14:45;;;;;;;59.13;16.33;;;0.30;99.90;;;;;;5084327;28;20044;-65
2022/12/11 09:17:11;;;;;;;56.45;16.73;;;0.30;99.90;;;;;;5088450;28;20074;-64
2022/12/11 09:19:36;;;;;;;59.75;16.13;;;0.30;99.90;;;;;;5081604;28;20147;-66
2022/12/11 09:22:02;;;;;;;65.20;17.42;;;0.30;99.90;;;;;;5084028;28;20051;-65
2022/12/11 09:24:27;;;;;;;56.35;17.45;;;0.30;99.90;;;;;;5082829;28;20047;-65
2022/12/11 09:26:53;;;;;;;65.95;18.13;;;0.20;99.90;;;;;;5084937;28;20036;-66
2022/12/11 09:29:19;;;;;;;58.60;16.33;;;0.30;99.90;;;;;;5075444;28;21472;-65
2022/12/11 09:31:45;;;;;;;58.45;16.45;;;0.30;99.90;;;;;;5078969;28;20123;-65
2022/12/11 09:34:12;;;;;;;64.97;18.15;;;0.30;99.90;;;;;;5087240;28;20102;-65
2022/12/11 09:36:39;;;;;;;64.95;17.48;;;0.30;99.90;;;;;;5084320;28;20043;-65
2022/12/11 09:39:06;;;;;;;60.38;16.27;;;0.30;99.90;;;;;;5070183;28;20048;-65
2022/12/11 09:41:39;;;;;;;56.53;16.65;;;0.30;99.90;;;;;;5082004;28;20141;-66
2022/12/11 09:44:07;;;;;;;62.20;18.67;;;0.30;99.90;;;;;;5082455;28;20040;-64
2022/12/11 09:46:34;;;;;;;64.80;18.15;;;0.30;99.90;;;;;;5090646;28;20102;-65
2022/12/11 09:49:02;;;;;;;59.67;17.70;;;0.30;99.90;;;;;;5085304;28;20028;-64
2022/12/11 09:51:47;;;;;;;62.58;18.98;;;0.30;99.90;;;;;;5085746;28;20143;-65
2022/12/11 09:54:13;;;;;;;67.32;17.90;;;0.30;99.90;;;;;;5089525;28;20118;-65
2022/12/11 09:56:46;;;;;;;60.22;17.50;;;0.30;99.90;;;;;;5090989;28;20556;-65
2022/12/11 09:59:39;;;;;;;62.47;18.20;;;0.30;99.90;;;;;;5087376;28;20044;-65
2022/12/11 10:02:40;;;;;;;53.20;16.70;;;0.30;99.90;;;;;;5071239;28;20084;-65
2022/12/11 10:05:46;;;;;;;63.60;17.90;;;0.40;99.90;;;;;;5082172;28;20028;-65
2022/12/11 10:08:37;;;;;;;61.55;17.77;;;0.40;99.90;;;;;;5073704;28;20052;-65
2022/12/11 10:11:12;;;;;;;57.22;17.40;;;0.40;99.90;;;;;;5075055;28;20042;-65
2022/12/11 10:13:57;;;;;;;67.43;17.40;;;0.40;99.90;;;;;;5081969;28;20074;-64
2022/12/11 10:16:39;;;;;;;57.47;15.93;;;0.40;99.90;;;;;;5089620;28;20138;-64
2022/12/11 10:19:09;;;;;;;50.63;16.08;;;0.40;99.90;;;;;;5086937;28;20062;-64
2022/12/11 10:21:40;;;;;;;59.40;15.55;;;0.40;99.90;;;;;;5090295;28;20060;-64
2022/12/11 10:24:16;;;;;;;52.00;15.70;;;0.40;99.90;;;;;;5069200;28;20059;-64
2022/12/11 10:26:42;;;;;;;54.67;15.57;;;0.40;99.90;;;;;;5084042;28;20049;-65
2022/12/11 10:29:15;;;;;;;46.42;15.18;;;0.50;99.90;;;;;;5087482;28;20492;-66
2022/12/11 10:31:54;;;;;;;53.05;15.57;;;0.50;99.90;;;;;;5087991;28;20036;-65
2022/12/11 10:34:28;;;;;;;50.57;15.53;;;0.50;99.90;;;;;;5089633;28;20047;-66
2022/12/11 10:36:54;;;;;;;60.47;18.58;;;0.50;99.90;;;;;;5081971;28;20049;-65
2022/12/11 10:39:21;;;;;;;49.45;16.98;;;0.50;99.90;;;;;;5081276;28;20050;-67
2022/12/11 10:41:49;;;;;;;54.65;16.73;;;0.50;99.90;;;;;;5086413;28;20044;-65
2022/12/11 10:44:17;;;;;;;50.75;15.77;;;0.50;99.90;;;;;;5088952;28;20071;-65
2022/12/11 10:46:45;;;;;;;57.30;17.75;;;0.50;99.90;;;;;;5090843;28;20541;-65
2022/12/11 10:49:25;;;;;;;57.90;17.00;;;0.50;99.90;;;;;;5085940;28;20086;-64
2022/12/11 10:51:53;;;;;;;57.00;17.42;;;0.50;99.90;;;;;;5085599;28;20562;-66
2022/12/11 10:54:41;;;;;;;54.03;17.10;;;0.50;99.90;;;;;;5091231;28;20040;-65
2022/12/11 10:57:08;;;;;;;62.22;16.83;;;0.50;99.90;;;;;;5072281;28;20090;-65
2022/12/11 10:59:46;;;;;;;63.03;18.73;;;0.50;99.90;;;;;;5080758;28;20037;-65
2022/12/11 11:02:28;;;;;;;55.60;17.02;;;0.50;99.90;;;;;;5084866;28;20131;-65
2022/12/11 11:04:55;;;;;;;55.75;16.80;;;0.50;99.90;;;;;;5086577;28;20036;-64
2022/12/11 11:07:29;;;;;;;51.03;16.90;;;0.50;99.90;;;;;;5088385;28;20097;-66
2022/12/11 11:10:12;;;;;;;54.85;17.98;;;0.60;99.90;;;;;;5083443;28;20054;-65
2022/12/11 11:12:45;;;;;;;54.83;18.38;;;0.60;99.90;;;;;;5078002;28;20040;-66
2022/12/11 11:15:16;;;;;;;49.28;16.48;;;0.60;99.90;;;;;;5077906;28;20052;-66
2022/12/11 11:17:53;;;;;;;51.08;15.77;;;0.60;99.90;;;;;;5078271;28;20040;-65
2022/12/11 11:20:22;;;;;;;52.97;15.45;;;0.60;99.90;;;;;;5078773;28;20040;-65
2022/12/11 11:22:51;;;;;;;54.90;16.75;;;0.60;99.90;;;;;;5078649;28;20047;-66
2022/12/11 11:25:23;;;;;;;52.60;16.92;;;0.60;99.90;;;;;;5060069;28;20036;-65
2022/12/11 11:27:56;;;;;;;54.05;18.55;;;0.60;99.90;;;;;;5081220;28;20105;-65
2022/12/11 11:30:28;;;;;;;55.20;18.33;;;0.60;99.90;;;;;;5083600;28;20039;-66
2022/12/11 11:32:59;;;;;;;57.03;16.85;;;0.60;99.90;;;;;;5070789;28;20055;-64
2022/12/11 11:35:27;;;;;;;52.97;17.77;;;0.60;99.90;;;;;;5098232;28;20042;-64
2022/12/11 11:38:02;;;;;;;53.85;17.08;;;0.60;99.90;;;;;;5066707;28;20051;-64
2022/12/11 11:40:49;;;;;;;53.90;18.65;;;0.60;99.90;;;;;;5097047;28;20033;-65
2022/12/11 11:43:27;;;;;;;49.47;16.98;;;0.60;99.90;;;;;;5079143;28;20468;-64
2022/12/11 11:46:30;;;;;;;50.13;16.17;;;0.60;99.90;;;;;;5074472;28;20551;-66
2022/12/11 11:49:06;;;;;;;49.90;15.85;;;0.70;99.90;;;;;;5075235;28;20040;-65
2022/12/11 11:51:44;;;;;;;50.58;16.55;;;0.70;99.90;;;;;;5099099;28;20039;-64
2022/12/11 11:54:34;;;;;;;51.30;15.82;;;0.70;99.90;;;;;;5088725;28;20126;-65
2022/12/11 11:57:23;;;;;;;53.22;16.33;;;0.70;99.90;;;;;;5087214;28;20122;-66
2022/12/11 11:59:54;;;;;;;51.75;15.57;;;0.70;99.90;;;;;;5076045;28;20494;-64
2022/12/11 12:02:20;;;;;;;42.05;14.82;;;0.70;99.90;;;;;;5089811;28;20098;-64
2022/12/11 12:04:48;;;;;;;49.50;16.15;;;0.70;99.90;;;;;;5090357;28;20072;-65
2022/12/11 12:07:35;;;;;;;56.15;16.73;;;0.70;99.90;;;;;;5083642;28;20103;-65
2022/12/11 12:10:20;;;;;;;53.67;16.58;;;0.70;99.90;;;;;;5105998;28;20027;-65
2022/12/11 12:13:05;;;;;;;47.22;15.80;;;0.70;99.90;;;;;;5074159;28;20091;-66
2022/12/11 12:15:46;;;;;;;56.50;16.95;;;0.70;99.90;;;;;;5077904;28;20040;-66
2022/12/11 12:18:23;;;;;;;44.10;15.60;;;0.70;99.90;;;;;;5089854;28;20122;-65
2022/12/11 12:20:59;;;;;;;55.20;16.40;;;0.70;99.90;;;;;;5091927;28;20088;-65
2022/12/11 12:23:35;;;;;;;51.72;16.70;;;0.70;99.90;;;;;;5091567;28;20063;-64
2022/12/11 12:26:18;;;;;;;48.95;16.77;;;0.80;99.90;;;;;;5086353;28;20367;-64
2022/12/11 12:29:12;;;;;;;47.28;16.40;;;0.80;99.90;;;;;;5084478;28;20039;-65
2022/12/11 12:32:17;;;;;;;44.00;16.00;;;0.80;99.90;;;;;;5086335;28;20036;-64
2022/12/11 12:35:01;;;;;;;54.35;15.55;;;0.80;99.90;;;;;;5081904;28;20047;-65
2022/12/11 12:37:35;;;;;;;49.75;16.02;;;0.80;99.90;;;;;;5072335;28;20133;-64
2022/12/11 12:40:07;;;;;;;50.45;16.75;;;0.80;99.90;;;;;;5055091;28;20072;-65
2022/12/11 12:42:51;;;;;;;48.85;15.88;;;0.80;99.90;;;;;;5104055;28;20066;-66
2022/12/11 12:45:24;;;;;;;49.17;15.48;;;0.80;99.90;;;;;;5099189;28;20043;-65
2022/12/11 12:47:51;;;;;;;55.75;16.90;;;0.80;99.90;;;;;;5089300;28;20032;-65
2022/12/11 12:50:20;;;;;;;50.20;16.35;;;0.70;99.90;;;;;;5092612;28;20039;-65
2022/12/11 12:52:47;;;;;;;52.78;16.60;;;0.80;99.90;;;;;;5106284;28;20051;-64
2022/12/11 12:55:21;;;;;;;56.55;18.55;;;0.80;99.90;;;;;;5106817;28;20119;-65
2022/12/11 12:58:04;;;;;;;50.85;17.85;;;0.80;99.90;;;;;;5104692;28;20040;-64